sensor_id;sensor_type;location;lat;lon;timestamp;P1;durP1;ratioP1;P2;durP2;ratioP2
22571;SDS011;11452;53.368;14.658;2022-08-19T00:02:41;8.90;;;8.17;;
22571;SDS011;11452;53.368;14.658;2022-08-19T00:07:49;9.63;;;8.83;;
22571;SDS011;11452;53.368;14.658;2022-08-19T00:12:54;9.87;;;9.07;;
22571;SDS011;11452;53.368;14.658;2022-08-19T00:18:00;9.43;;;8.63;;
22571;SDS011;11452;53.368;14.658;2022-08-19T00:23:06;10.70;;;9.87;;
22571;SDS011;11452;53.368;14.658;2022-08-19T00:28:12;10.13;;;9.33;;
22571;SDS011;11452;53.368;14.658;2022-08-19T00:33:18;9.67;;;8.87;;
22571;SDS011;11452;53.368;14.658;2022-08-19T00:38:24;9.27;;;8.50;;
22571;SDS011;11452;53.368;14.658;2022-08-19T00:43:32;9.43;;;8.73;;
22571;SDS011;11452;53.368;14.658;2022-08-19T00:48:38;10.67;;;9.80;;
22571;SDS011;11452;53.368;14.658;2022-08-19T00:53:44;11.73;;;10.73;;
22571;SDS011;11452;53.368;14.658;2022-08-19T00:58:49;10.57;;;9.67;;
22571;SDS011;11452;53.368;14.658;2022-08-19T01:03:55;10.33;;;9.53;;
22571;SDS011;11452;53.368;14.658;2022-08-19T01:09:01;10.63;;;9.77;;
22571;SDS011;11452;53.368;14.658;2022-08-19T01:14:08;11.73;;;10.70;;
22571;SDS011;11452;53.368;14.658;2022-08-19T01:19:34;11.33;;;10.33;;
22571;SDS011;11452;53.368;14.658;2022-08-19T01:24:43;10.90;;;9.93;;
22571;SDS011;11452;53.368;14.658;2022-08-19T01:29:51;11.07;;;10.17;;
22571;SDS011;11452;53.368;14.658;2022-08-19T01:34:58;12.00;;;11.00;;
22571;SDS011;11452;53.368;14.658;2022-08-19T01:40:06;12.93;;;11.83;;
22571;SDS011;11452;53.368;14.658;2022-08-19T01:45:12;12.80;;;11.60;;
22571;SDS011;11452;53.368;14.658;2022-08-19T01:50:18;12.63;;;11.63;;
22571;SDS011;11452;53.368;14.658;2022-08-19T01:55:26;13.30;;;12.13;;
22571;SDS011;11452;53.368;14.658;2022-08-19T02:00:32;13.30;;;12.17;;
22571;SDS011;11452;53.368;14.658;2022-08-19T02:05:38;12.97;;;11.90;;
22571;SDS011;11452;53.368;14.658;2022-08-19T02:10:44;12.30;;;11.20;;
22571;SDS011;11452;53.368;14.658;2022-08-19T02:15:51;11.93;;;10.97;;
22571;SDS011;11452;53.368;14.658;2022-08-19T02:20:56;13.47;;;12.40;;
22571;SDS011;11452;53.368;14.658;2022-08-19T02:26:02;13.87;;;12.67;;
22571;SDS011;11452;53.368;14.658;2022-08-19T02:31:14;14.20;;;13.00;;
22571;SDS011;11452;53.368;14.658;2022-08-19T02:36:16;12.93;;;11.93;;
22571;SDS011;11452;53.368;14.658;2022-08-19T02:41:30;12.63;;;11.63;;
22571;SDS011;11452;53.368;14.658;2022-08-19T02:46:32;13.53;;;12.27;;
22571;SDS011;11452;53.368;14.658;2022-08-19T02:51:40;12.10;;;11.00;;
22571;SDS011;11452;53.368;14.658;2022-08-19T02:56:47;12.00;;;11.00;;
22571;SDS011;11452;53.368;14.658;2022-08-19T03:01:52;12.43;;;11.37;;
22571;SDS011;11452;53.368;14.658;2022-08-19T03:06:58;11.13;;;10.13;;
22571;SDS011;11452;53.368;14.658;2022-08-19T03:12:05;12.00;;;10.90;;
22571;SDS011;11452;53.368;14.658;2022-08-19T03:17:11;12.77;;;11.67;;
22571;SDS011;11452;53.368;14.658;2022-08-19T03:22:17;11.53;;;10.63;;
22571;SDS011;11452;53.368;14.658;2022-08-19T03:27:23;12.40;;;11.30;;
22571;SDS011;11452;53.368;14.658;2022-08-19T03:32:30;11.60;;;10.70;;
22571;SDS011;11452;53.368;14.658;2022-08-19T03:37:37;12.53;;;11.53;;
22571;SDS011;11452;53.368;14.658;2022-08-19T03:42:43;12.70;;;11.67;;
22571;SDS011;11452;53.368;14.658;2022-08-19T03:47:51;12.17;;;11.17;;
22571;SDS011;11452;53.368;14.658;2022-08-19T03:52:57;14.00;;;12.80;;
22571;SDS011;11452;53.368;14.658;2022-08-19T03:58:04;13.67;;;12.60;;
22571;SDS011;11452;53.368;14.658;2022-08-19T04:03:10;13.13;;;12.03;;
22571;SDS011;11452;53.368;14.658;2022-08-19T04:08:15;13.73;;;12.53;;
22571;SDS011;11452;53.368;14.658;2022-08-19T04:13:22;12.70;;;11.57;;
22571;SDS011;11452;53.368;14.658;2022-08-19T04:18:28;13.73;;;12.50;;
22571;SDS011;11452;53.368;14.658;2022-08-19T04:23:36;15.37;;;14.07;;
22571;SDS011;11452;53.368;14.658;2022-08-19T04:28:43;17.00;;;15.60;;
22571;SDS011;11452;53.368;14.658;2022-08-19T04:33:49;16.20;;;14.70;;
22571;SDS011;11452;53.368;14.658;2022-08-19T04:38:56;16.87;;;15.13;;
22571;SDS011;11452;53.368;14.658;2022-08-19T04:44:04;16.53;;;14.97;;
22571;SDS011;11452;53.368;14.658;2022-08-19T04:49:10;14.77;;;13.43;;
22571;SDS011;11452;53.368;14.658;2022-08-19T04:54:18;14.87;;;13.57;;
22571;SDS011;11452;53.368;14.658;2022-08-19T04:59:27;14.80;;;13.53;;
22571;SDS011;11452;53.368;14.658;2022-08-19T05:04:33;15.33;;;14.03;;
22571;SDS011;11452;53.368;14.658;2022-08-19T05:09:40;16.37;;;14.83;;
22571;SDS011;11452;53.368;14.658;2022-08-19T05:14:48;14.90;;;13.70;;
22571;SDS011;11452;53.368;14.658;2022-08-19T05:19:54;16.23;;;14.83;;
22571;SDS011;11452;53.368;14.658;2022-08-19T05:25:18;19.03;;;17.33;;
22571;SDS011;11452;53.368;14.658;2022-08-19T05:30:25;17.40;;;15.73;;
22571;SDS011;11452;53.368;14.658;2022-08-19T05:35:32;15.47;;;14.00;;
22571;SDS011;11452;53.368;14.658;2022-08-19T05:40:38;16.80;;;15.40;;
22571;SDS011;11452;53.368;14.658;2022-08-19T05:45:45;14.33;;;13.00;;
22571;SDS011;11452;53.368;14.658;2022-08-19T05:50:50;16.40;;;14.23;;
22571;SDS011;11452;53.368;14.658;2022-08-19T05:55:56;13.97;;;12.67;;
22571;SDS011;11452;53.368;14.658;2022-08-19T06:01:02;12.83;;;11.63;;
22571;SDS011;11452;53.368;14.658;2022-08-19T06:06:09;13.13;;;11.93;;
22571;SDS011;11452;53.368;14.658;2022-08-19T06:11:32;13.37;;;12.17;;
22571;SDS011;11452;53.368;14.658;2022-08-19T06:16:29;12.60;;;11.47;;
22571;SDS011;11452;53.368;14.658;2022-08-19T06:21:37;13.10;;;11.87;;
22571;SDS011;11452;53.368;14.658;2022-08-19T06:26:46;14.20;;;12.70;;
22571;SDS011;11452;53.368;14.658;2022-08-19T06:31:56;14.33;;;12.93;;
22571;SDS011;11452;53.368;14.658;2022-08-19T06:37:03;13.67;;;12.43;;
22571;SDS011;11452;53.368;14.658;2022-08-19T06:42:10;14.90;;;13.50;;
22571;SDS011;11452;53.368;14.658;2022-08-19T06:47:20;12.80;;;11.67;;
22571;SDS011;11452;53.368;14.658;2022-08-19T06:52:34;14.67;;;13.17;;
22571;SDS011;11452;53.368;14.658;2022-08-19T06:57:39;13.47;;;12.17;;
22571;SDS011;11452;53.368;14.658;2022-08-19T07:02:45;15.17;;;13.67;;
22571;SDS011;11452;53.368;14.658;2022-08-19T07:07:53;13.77;;;12.33;;
22571;SDS011;11452;53.368;14.658;2022-08-19T07:13:02;14.77;;;13.00;;
22571;SDS011;11452;53.368;14.658;2022-08-19T07:18:09;13.47;;;11.57;;
22571;SDS011;11452;53.368;14.658;2022-08-19T07:23:15;13.03;;;11.83;;
22571;SDS011;11452;53.368;14.658;2022-08-19T07:28:20;12.90;;;11.57;;
22571;SDS011;11452;53.368;14.658;2022-08-19T07:33:28;13.37;;;12.20;;
22571;SDS011;11452;53.368;14.658;2022-08-19T07:38:35;15.13;;;13.73;;
22571;SDS011;11452;53.368;14.658;2022-08-19T07:43:43;16.03;;;14.43;;
22571;SDS011;11452;53.368;14.658;2022-08-19T07:48:50;16.00;;;14.47;;
22571;SDS011;11452;53.368;14.658;2022-08-19T07:53:56;16.27;;;14.53;;
22571;SDS011;11452;53.368;14.658;2022-08-19T07:59:02;17.40;;;15.43;;
22571;SDS011;11452;53.368;14.658;2022-08-19T08:04:08;23.53;;;20.67;;
22571;SDS011;11452;53.368;14.658;2022-08-19T08:09:33;20.97;;;18.77;;
22571;SDS011;11452;53.368;14.658;2022-08-19T08:14:46;15.57;;;13.93;;
22571;SDS011;11452;53.368;14.658;2022-08-19T08:19:55;13.07;;;11.87;;
22571;SDS011;11452;53.368;14.658;2022-08-19T08:25:09;13.37;;;12.13;;
22571;SDS011;11452;53.368;14.658;2022-08-19T08:30:14;13.40;;;12.00;;
22571;SDS011;11452;53.368;14.658;2022-08-19T08:35:25;11.33;;;10.33;;
22571;SDS011;11452;53.368;14.658;2022-08-19T08:45:47;10.97;;;9.97;;
22571;SDS011;11452;53.368;14.658;2022-08-19T08:50:55;13.03;;;10.87;;
22571;SDS011;11452;53.368;14.658;2022-08-19T08:56:04;11.70;;;10.60;;
22571;SDS011;11452;53.368;14.658;2022-08-19T09:01:12;10.50;;;9.50;;
22571;SDS011;11452;53.368;14.658;2022-08-19T09:07:23;9.23;;;8.43;;
22571;SDS011;11452;53.368;14.658;2022-08-19T09:11:53;13.13;;;9.67;;
22571;SDS011;11452;53.368;14.658;2022-08-19T09:17:04;9.87;;;9.07;;
22571;SDS011;11452;53.368;14.658;2022-08-19T09:22:11;9.67;;;8.67;;
22571;SDS011;11452;53.368;14.658;2022-08-19T09:27:19;10.67;;;9.57;;
22571;SDS011;11452;53.368;14.658;2022-08-19T09:32:30;11.83;;;10.27;;
22571;SDS011;11452;53.368;14.658;2022-08-19T09:37:36;10.53;;;9.53;;
22571;SDS011;11452;53.368;14.658;2022-08-19T09:42:43;10.20;;;9.10;;
22571;SDS011;11452;53.368;14.658;2022-08-19T09:47:52;10.67;;;9.57;;
22571;SDS011;11452;53.368;14.658;2022-08-19T09:52:59;10.43;;;9.43;;
22571;SDS011;11452;53.368;14.658;2022-08-19T09:58:04;11.07;;;10.17;;
22571;SDS011;11452;53.368;14.658;2022-08-19T10:03:10;9.07;;;8.33;;
22571;SDS011;11452;53.368;14.658;2022-08-19T10:08:16;10.33;;;9.43;;
22571;SDS011;11452;53.368;14.658;2022-08-19T10:13:27;10.77;;;9.77;;
22571;SDS011;11452;53.368;14.658;2022-08-19T10:18:34;11.73;;;10.80;;
22571;SDS011;11452;53.368;14.658;2022-08-19T10:23:44;11.17;;;9.97;;
22571;SDS011;11452;53.368;14.658;2022-08-19T10:28:53;11.23;;;10.10;;
22571;SDS011;11452;53.368;14.658;2022-08-19T10:34:00;13.27;;;12.03;;
22571;SDS011;11452;53.368;14.658;2022-08-19T10:39:07;13.90;;;12.60;;
22571;SDS011;11452;53.368;14.658;2022-08-19T10:44:16;11.80;;;10.80;;
22571;SDS011;11452;53.368;14.658;2022-08-19T10:49:23;12.47;;;11.37;;
22571;SDS011;11452;53.368;14.658;2022-08-19T10:54:31;13.33;;;12.13;;
22571;SDS011;11452;53.368;14.658;2022-08-19T10:59:57;14.80;;;13.40;;
22571;SDS011;11452;53.368;14.658;2022-08-19T11:05:02;13.50;;;12.20;;
22571;SDS011;11452;53.368;14.658;2022-08-19T11:10:12;12.97;;;11.87;;
22571;SDS011;11452;53.368;14.658;2022-08-19T11:15:22;14.37;;;13.07;;
22571;SDS011;11452;53.368;14.658;2022-08-19T11:20:28;14.83;;;13.43;;
22571;SDS011;11452;53.368;14.658;2022-08-19T11:25:38;13.47;;;12.27;;
22571;SDS011;11452;53.368;14.658;2022-08-19T11:30:43;13.43;;;12.20;;
22571;SDS011;11452;53.368;14.658;2022-08-19T11:35:49;15.37;;;13.87;;
22571;SDS011;11452;53.368;14.658;2022-08-19T11:41:01;15.03;;;13.77;;
22571;SDS011;11452;53.368;14.658;2022-08-19T11:46:04;14.80;;;13.53;;
22571;SDS011;11452;53.368;14.658;2022-08-19T11:51:12;14.93;;;13.70;;
22571;SDS011;11452;53.368;14.658;2022-08-19T11:56:19;16.27;;;14.87;;
22571;SDS011;11452;53.368;14.658;2022-08-19T12:01:27;15.23;;;13.93;;
22571;SDS011;11452;53.368;14.658;2022-08-19T12:06:33;15.77;;;14.43;;
22571;SDS011;11452;53.368;14.658;2022-08-19T12:11:41;16.70;;;15.20;;
22571;SDS011;11452;53.368;14.658;2022-08-19T12:16:48;15.47;;;14.17;;
22571;SDS011;11452;53.368;14.658;2022-08-19T12:21:58;15.30;;;14.00;;
22571;SDS011;11452;53.368;14.658;2022-08-19T12:27:06;16.60;;;15.00;;
22571;SDS011;11452;53.368;14.658;2022-08-19T12:32:14;16.90;;;15.40;;
22571;SDS011;11452;53.368;14.658;2022-08-19T12:37:20;16.30;;;14.80;;
22571;SDS011;11452;53.368;14.658;2022-08-19T12:42:26;15.40;;;14.10;;
22571;SDS011;11452;53.368;14.658;2022-08-19T12:47:34;16.73;;;15.27;;
22571;SDS011;11452;53.368;14.658;2022-08-19T12:52:41;16.50;;;15.10;;
22571;SDS011;11452;53.368;14.658;2022-08-19T12:57:47;19.90;;;15.17;;
22571;SDS011;11452;53.368;14.658;2022-08-19T13:02:54;17.10;;;15.57;;
22571;SDS011;11452;53.368;14.658;2022-08-19T13:08:01;16.13;;;14.73;;
22571;SDS011;11452;53.368;14.658;2022-08-19T13:13:07;17.53;;;15.83;;
22571;SDS011;11452;53.368;14.658;2022-08-19T13:18:14;15.93;;;14.53;;
22571;SDS011;11452;53.368;14.658;2022-08-19T13:23:20;16.37;;;14.87;;
22571;SDS011;11452;53.368;14.658;2022-08-19T13:28:26;17.23;;;15.63;;
22571;SDS011;11452;53.368;14.658;2022-08-19T13:33:34;18.63;;;16.93;;
22571;SDS011;11452;53.368;14.658;2022-08-19T13:38:39;17.00;;;15.50;;
22571;SDS011;11452;53.368;14.658;2022-08-19T13:43:45;17.10;;;15.45;;
22571;SDS011;11452;53.368;14.658;2022-08-19T13:48:52;17.40;;;15.77;;
22571;SDS011;11452;53.368;14.658;2022-08-19T13:53:57;18.40;;;16.80;;
22571;SDS011;11452;53.368;14.658;2022-08-19T13:59:03;16.90;;;15.50;;
22571;SDS011;11452;53.368;14.658;2022-08-19T14:04:08;16.20;;;14.70;;
22571;SDS011;11452;53.368;14.658;2022-08-19T14:09:14;15.43;;;14.13;;
22571;SDS011;11452;53.368;14.658;2022-08-19T14:14:20;15.17;;;13.87;;
22571;SDS011;11452;53.368;14.658;2022-08-19T14:19:26;15.50;;;14.13;;
22571;SDS011;11452;53.368;14.658;2022-08-19T14:24:32;14.40;;;13.13;;
22571;SDS011;11452;53.368;14.658;2022-08-19T14:29:38;14.73;;;13.60;;
22571;SDS011;11452;53.368;14.658;2022-08-19T14:34:44;14.03;;;12.83;;
22571;SDS011;11452;53.368;14.658;2022-08-19T14:39:50;15.17;;;13.77;;
22571;SDS011;11452;53.368;14.658;2022-08-19T14:44:57;13.70;;;12.53;;
22571;SDS011;11452;53.368;14.658;2022-08-19T14:50:04;14.33;;;13.13;;
22571;SDS011;11452;53.368;14.658;2022-08-19T14:55:16;14.37;;;13.07;;
22571;SDS011;11452;53.368;14.658;2022-08-19T15:00:22;14.97;;;13.63;;
22571;SDS011;11452;53.368;14.658;2022-08-19T15:05:28;14.87;;;13.43;;
22571;SDS011;11452;53.368;14.658;2022-08-19T15:10:35;14.10;;;12.90;;
22571;SDS011;11452;53.368;14.658;2022-08-19T15:15:43;13.73;;;12.57;;
22571;SDS011;11452;53.368;14.658;2022-08-19T15:20:50;13.37;;;12.27;;
22571;SDS011;11452;53.368;14.658;2022-08-19T15:25:56;12.70;;;11.60;;
22571;SDS011;11452;53.368;14.658;2022-08-19T15:31:02;13.90;;;12.80;;
22571;SDS011;11452;53.368;14.658;2022-08-19T15:36:09;14.90;;;13.70;;
22571;SDS011;11452;53.368;14.658;2022-08-19T15:41:18;14.37;;;13.30;;
22571;SDS011;11452;53.368;14.658;2022-08-19T15:46:30;15.83;;;14.53;;
22571;SDS011;11452;53.368;14.658;2022-08-19T15:51:36;14.17;;;12.93;;
22571;SDS011;11452;53.368;14.658;2022-08-19T15:56:43;15.03;;;13.73;;
22571;SDS011;11452;53.368;14.658;2022-08-19T16:02:06;15.40;;;13.97;;
22571;SDS011;11452;53.368;14.658;2022-08-19T16:07:31;15.30;;;14.00;;
22571;SDS011;11452;53.368;14.658;2022-08-19T16:12:37;18.27;;;16.67;;
22571;SDS011;11452;53.368;14.658;2022-08-19T16:17:44;17.07;;;15.37;;
22571;SDS011;11452;53.368;14.658;2022-08-19T16:22:52;17.10;;;15.67;;
22571;SDS011;11452;53.368;14.658;2022-08-19T16:27:58;16.07;;;14.47;;
22571;SDS011;11452;53.368;14.658;2022-08-19T16:33:06;13.57;;;12.37;;
22571;SDS011;11452;53.368;14.658;2022-08-19T16:38:12;14.93;;;13.50;;
22571;SDS011;11452;53.368;14.658;2022-08-19T16:43:17;13.07;;;11.97;;
22571;SDS011;11452;53.368;14.658;2022-08-19T16:48:26;13.43;;;12.23;;
22571;SDS011;11452;53.368;14.658;2022-08-19T16:53:34;13.20;;;12.00;;
22571;SDS011;11452;53.368;14.658;2022-08-19T16:58:41;12.83;;;11.63;;
22571;SDS011;11452;53.368;14.658;2022-08-19T17:03:46;13.43;;;12.10;;
22571;SDS011;11452;53.368;14.658;2022-08-19T17:08:54;12.77;;;11.53;;
22571;SDS011;11452;53.368;14.658;2022-08-19T17:14:04;13.40;;;12.20;;
22571;SDS011;11452;53.368;14.658;2022-08-19T17:19:11;13.00;;;11.70;;
22571;SDS011;11452;53.368;14.658;2022-08-19T17:24:17;13.70;;;12.43;;
22571;SDS011;11452;53.368;14.658;2022-08-19T17:29:23;13.30;;;12.10;;
22571;SDS011;11452;53.368;14.658;2022-08-19T17:34:28;13.73;;;12.33;;
22571;SDS011;11452;53.368;14.658;2022-08-19T17:39:34;13.17;;;12.00;;
22571;SDS011;11452;53.368;14.658;2022-08-19T17:44:42;12.03;;;11.03;;
22571;SDS011;11452;53.368;14.658;2022-08-19T17:49:49;14.13;;;12.83;;
22571;SDS011;11452;53.368;14.658;2022-08-19T17:54:56;12.60;;;11.60;;
22571;SDS011;11452;53.368;14.658;2022-08-19T18:00:01;14.20;;;12.93;;
22571;SDS011;11452;53.368;14.658;2022-08-19T18:05:10;15.47;;;14.07;;
22571;SDS011;11452;53.368;14.658;2022-08-19T18:10:17;14.43;;;12.93;;
22571;SDS011;11452;53.368;14.658;2022-08-19T18:15:27;15.43;;;13.97;;
22571;SDS011;11452;53.368;14.658;2022-08-19T18:20:33;14.73;;;13.20;;
22571;SDS011;11452;53.368;14.658;2022-08-19T18:25:39;14.10;;;12.80;;
22571;SDS011;11452;53.368;14.658;2022-08-19T18:30:46;12.90;;;11.70;;
22571;SDS011;11452;53.368;14.658;2022-08-19T18:35:51;12.60;;;11.40;;
22571;SDS011;11452;53.368;14.658;2022-08-19T18:40:57;12.00;;;10.80;;
22571;SDS011;11452;53.368;14.658;2022-08-19T18:46:21;12.80;;;11.80;;
22571;SDS011;11452;53.368;14.658;2022-08-19T18:51:44;10.97;;;10.00;;
22571;SDS011;11452;53.368;14.658;2022-08-19T18:56:50;11.23;;;10.13;;
22571;SDS011;11452;53.368;14.658;2022-08-19T19:01:58;11.37;;;10.23;;
22571;SDS011;11452;53.368;14.658;2022-08-19T19:07:05;10.67;;;9.57;;
22571;SDS011;11452;53.368;14.658;2022-08-19T19:12:12;10.67;;;9.73;;
22571;SDS011;11452;53.368;14.658;2022-08-19T19:17:20;11.13;;;10.03;;
22571;SDS011;11452;53.368;14.658;2022-08-19T19:22:27;10.70;;;9.70;;
22571;SDS011;11452;53.368;14.658;2022-08-19T19:27:33;11.77;;;10.67;;
22571;SDS011;11452;53.368;14.658;2022-08-19T19:32:38;11.07;;;10.00;;
22571;SDS011;11452;53.368;14.658;2022-08-19T19:37:44;11.70;;;10.70;;
22571;SDS011;11452;53.368;14.658;2022-08-19T19:42:53;12.17;;;11.07;;
22571;SDS011;11452;53.368;14.658;2022-08-19T19:47:59;13.17;;;12.00;;
22571;SDS011;11452;53.368;14.658;2022-08-19T19:53:04;13.07;;;11.77;;
22571;SDS011;11452;53.368;14.658;2022-08-19T19:58:10;11.43;;;10.50;;
22571;SDS011;11452;53.368;14.658;2022-08-19T20:03:15;13.03;;;11.73;;
22571;SDS011;11452;53.368;14.658;2022-08-19T20:08:23;11.77;;;10.77;;
22571;SDS011;11452;53.368;14.658;2022-08-19T20:13:48;12.97;;;11.67;;
22571;SDS011;11452;53.368;14.658;2022-08-19T20:18:54;14.07;;;12.73;;
22571;SDS011;11452;53.368;14.658;2022-08-19T20:24:01;13.30;;;12.07;;
22571;SDS011;11452;53.368;14.658;2022-08-19T20:29:09;14.83;;;12.27;;
22571;SDS011;11452;53.368;14.658;2022-08-19T20:34:17;14.27;;;12.87;;
22571;SDS011;11452;53.368;14.658;2022-08-19T20:39:24;13.10;;;11.70;;
22571;SDS011;11452;53.368;14.658;2022-08-19T20:44:29;13.77;;;11.67;;
22571;SDS011;11452;53.368;14.658;2022-08-19T20:49:35;13.73;;;12.43;;
22571;SDS011;11452;53.368;14.658;2022-08-19T20:54:41;13.60;;;12.30;;
22571;SDS011;11452;53.368;14.658;2022-08-19T20:59:46;19.33;;;15.20;;
22571;SDS011;11452;53.368;14.658;2022-08-19T21:04:52;12.83;;;11.50;;
22571;SDS011;11452;53.368;14.658;2022-08-19T21:09:59;13.30;;;12.10;;
22571;SDS011;11452;53.368;14.658;2022-08-19T21:15:07;13.87;;;12.50;;
22571;SDS011;11452;53.368;14.658;2022-08-19T21:20:13;13.90;;;12.50;;
22571;SDS011;11452;53.368;14.658;2022-08-19T21:25:19;13.60;;;12.20;;
22571;SDS011;11452;53.368;14.658;2022-08-19T21:30:25;14.10;;;12.70;;
22571;SDS011;11452;53.368;14.658;2022-08-19T21:35:31;15.90;;;14.30;;
22571;SDS011;11452;53.368;14.658;2022-08-19T21:40:37;15.23;;;13.73;;
22571;SDS011;11452;53.368;14.658;2022-08-19T21:45:44;16.13;;;14.53;;
22571;SDS011;11452;53.368;14.658;2022-08-19T21:50:50;15.53;;;14.00;;
22571;SDS011;11452;53.368;14.658;2022-08-19T21:55:56;18.50;;;16.53;;
22571;SDS011;11452;53.368;14.658;2022-08-19T22:01:02;17.40;;;15.60;;
22571;SDS011;11452;53.368;14.658;2022-08-19T22:06:10;18.23;;;16.43;;
22571;SDS011;11452;53.368;14.658;2022-08-19T22:11:16;16.63;;;14.97;;
22571;SDS011;11452;53.368;14.658;2022-08-19T22:16:22;18.43;;;16.43;;
22571;SDS011;11452;53.368;14.658;2022-08-19T22:21:29;17.87;;;16.07;;
22571;SDS011;11452;53.368;14.658;2022-08-19T22:26:36;18.00;;;16.17;;
22571;SDS011;11452;53.368;14.658;2022-08-19T22:31:42;19.20;;;16.73;;
22571;SDS011;11452;53.368;14.658;2022-08-19T22:36:50;18.33;;;16.40;;
22571;SDS011;11452;53.368;14.658;2022-08-19T22:41:55;17.57;;;15.83;;
22571;SDS011;11452;53.368;14.658;2022-08-19T22:47:01;18.23;;;16.43;;
22571;SDS011;11452;53.368;14.658;2022-08-19T22:52:07;18.17;;;16.20;;
22571;SDS011;11452;53.368;14.658;2022-08-19T22:57:20;19.47;;;17.47;;
22571;SDS011;11452;53.368;14.658;2022-08-19T23:02:28;18.60;;;16.77;;
22571;SDS011;11452;53.368;14.658;2022-08-19T23:07:37;18.23;;;16.17;;
22571;SDS011;11452;53.368;14.658;2022-08-19T23:12:44;17.23;;;15.50;;
22571;SDS011;11452;53.368;14.658;2022-08-19T23:17:52;17.43;;;15.23;;
22571;SDS011;11452;53.368;14.658;2022-08-19T23:23:00;17.73;;;15.63;;
22571;SDS011;11452;53.368;14.658;2022-08-19T23:28:09;20.13;;;15.37;;
22571;SDS011;11452;53.368;14.658;2022-08-19T23:33:38;17.57;;;15.73;;
22571;SDS011;11452;53.368;14.658;2022-08-19T23:38:43;16.30;;;14.70;;
22571;SDS011;11452;53.368;14.658;2022-08-19T23:43:51;19.27;;;17.30;;
22571;SDS011;11452;53.368;14.658;2022-08-19T23:48:57;17.23;;;15.47;;
22571;SDS011;11452;53.368;14.658;2022-08-19T23:54:04;17.37;;;15.67;;
22571;SDS011;11452;53.368;14.658;2022-08-19T23:59:11;19.23;;;17.23;;
